AFL176 URRP-URSS
Flight info
| Callsign | AFL176 |
|---|---|
| Flight time | 0h 53m |
| Altitude | 33000 |
| Route | AMEPU2M AMEPU W79 BINOL BINOL1K |
| Aircraft | A321/M-SDE3FGHIRWY/LB1 |
Departure
| Time | 2026-05-05 05:16 |
|---|---|
| Airport | Platov International Airport (URRP) |
Arrival
| Time | 2026-05-05 06:09 |
|---|---|
| Airport | Sochi International Airport (URSS) |
| Time | Latitude | Longitude | Altitude | Speed | Heading |
|---|---|---|---|---|---|
| 2026-05-05 04:57 | 47.49087 | 39.93100 | 245 ft | 0 kts | 144° |
| 2026-05-05 05:05 | 47.49097 | 39.93089 | 245 ft | 2 kts | 145° |
| 2026-05-05 05:06 | 47.49109 | 39.93076 | 245 ft | 2 kts | 144° |
| 2026-05-05 05:06 | 47.49121 | 39.93064 | 245 ft | 2 kts | 144° |
| 2026-05-05 05:06 | 47.49133 | 39.93051 | 245 ft | 2 kts | 144° |
| 2026-05-05 05:06 | 47.49145 | 39.93039 | 245 ft | 1 kts | 144° |
| 2026-05-05 05:07 | 47.49153 | 39.93030 | 245 ft | 2 kts | 134° |
| 2026-05-05 05:07 | 47.49160 | 39.93011 | 244 ft | 2 kts | 106° |
| 2026-05-05 05:07 | 47.49162 | 39.92989 | 244 ft | 2 kts | 81° |
| 2026-05-05 05:07 | 47.49157 | 39.92969 | 243 ft | 0 kts | 58° |
| 2026-05-05 05:08 | 47.49154 | 39.92962 | 243 ft | 1 kts | 52° |
| 2026-05-05 05:08 | 47.49153 | 39.92960 | 243 ft | 0 kts | 53° |
| 2026-05-05 05:09 | 47.49158 | 39.92970 | 243 ft | 2 kts | 54° |
| 2026-05-05 05:10 | 47.49173 | 39.93003 | 244 ft | 5 kts | 55° |
| 2026-05-05 05:10 | 47.49197 | 39.93054 | 246 ft | 6 kts | 55° |
| 2026-05-05 05:10 | 47.49228 | 39.93118 | 248 ft | 8 kts | 54° |
| 2026-05-05 05:10 | 47.49263 | 39.93191 | 251 ft | 9 kts | 54° |
| 2026-05-05 05:11 | 47.49301 | 39.93268 | 255 ft | 9 kts | 54° |
| 2026-05-05 05:11 | 47.49342 | 39.93353 | 258 ft | 10 kts | 55° |
| 2026-05-05 05:11 | 47.49392 | 39.93426 | 262 ft | 10 kts | 14° |
| 2026-05-05 05:11 | 47.49467 | 39.93384 | 262 ft | 14 kts | 323° |
| 2026-05-05 05:12 | 47.49564 | 39.93306 | 262 ft | 17 kts | 6° |
| 2026-05-05 05:12 | 47.49646 | 39.93428 | 266 ft | 17 kts | 55° |
| 2026-05-05 05:12 | 47.49720 | 39.93578 | 268 ft | 19 kts | 54° |
| 2026-05-05 05:12 | 47.49805 | 39.93750 | 267 ft | 22 kts | 54° |
| 2026-05-05 05:13 | 47.49898 | 39.93942 | 265 ft | 23 kts | 54° |
| 2026-05-05 05:13 | 47.49992 | 39.94130 | 265 ft | 21 kts | 54° |
| 2026-05-05 05:13 | 47.50073 | 39.94296 | 270 ft | 18 kts | 54° |
| 2026-05-05 05:13 | 47.50137 | 39.94430 | 276 ft | 13 kts | 55° |
| 2026-05-05 05:14 | 47.50191 | 39.94515 | 281 ft | 9 kts | 23° |
| 2026-05-05 05:14 | 47.50245 | 39.94500 | 282 ft | 7 kts | 322° |
| 2026-05-05 05:14 | 47.50291 | 39.94448 | 281 ft | 9 kts | 321° |
| 2026-05-05 05:14 | 47.50314 | 39.94365 | 278 ft | 4 kts | 247° |
| 2026-05-05 05:15 | 47.50304 | 39.94344 | 277 ft | 0 kts | 234° |
| 2026-05-05 05:15 | 47.50206 | 39.94137 | 269 ft | 66 kts | 235° |
| 2026-05-05 05:15 | 47.49784 | 39.93263 | 266 ft | 139 kts | 236° |
| 2026-05-05 05:15 | 47.49156 | 39.91953 | 568 ft | 165 kts | 234° |
| 2026-05-05 05:16 | 47.48502 | 39.90634 | 1346 ft | 158 kts | 233° |
| 2026-05-05 05:16 | 47.47864 | 39.89352 | 2006 ft | 156 kts | 233° |
| 2026-05-05 05:16 | 47.47219 | 39.88044 | 2356 ft | 163 kts | 233° |
| 2026-05-05 05:16 | 47.46530 | 39.86643 | 2653 ft | 174 kts | 233° |
| 2026-05-05 05:17 | 47.45644 | 39.85360 | 2917 ft | 184 kts | 202° |
| 2026-05-05 05:17 | 47.44376 | 39.84981 | 3212 ft | 192 kts | 180° |
| 2026-05-05 05:17 | 47.43003 | 39.84898 | 3512 ft | 205 kts | 177° |
| 2026-05-05 05:17 | 47.41533 | 39.84835 | 3814 ft | 220 kts | 178° |
| 2026-05-05 05:18 | 47.39965 | 39.84734 | 4157 ft | 235 kts | 179° |
| 2026-05-05 05:18 | 47.38246 | 39.84591 | 4416 ft | 257 kts | 180° |
| 2026-05-05 05:18 | 47.36404 | 39.84407 | 4919 ft | 271 kts | 180° |
| 2026-05-05 05:18 | 47.34523 | 39.84202 | 5559 ft | 274 kts | 181° |
| 2026-05-05 05:19 | 47.32617 | 39.83986 | 5916 ft | 275 kts | 180° |
| 2026-05-05 05:19 | 47.30730 | 39.83773 | 6014 ft | 275 kts | 180° |
| 2026-05-05 05:19 | 47.28808 | 39.83556 | 6011 ft | 275 kts | 180° |
| 2026-05-05 05:19 | 47.26904 | 39.83343 | 6016 ft | 275 kts | 180° |
| 2026-05-05 05:20 | 47.25005 | 39.83131 | 6019 ft | 275 kts | 181° |
| 2026-05-05 05:20 | 47.23097 | 39.82917 | 6021 ft | 276 kts | 181° |
| 2026-05-05 05:20 | 47.21181 | 39.82703 | 6022 ft | 276 kts | 181° |
| 2026-05-05 05:20 | 47.19260 | 39.82494 | 6024 ft | 277 kts | 180° |
| 2026-05-05 05:21 | 47.17343 | 39.82320 | 6323 ft | 283 kts | 180° |
| 2026-05-05 05:21 | 47.15368 | 39.82150 | 7149 ft | 282 kts | 180° |
| 2026-05-05 05:21 | 47.13442 | 39.81985 | 7917 ft | 283 kts | 180° |
| 2026-05-05 05:21 | 47.11472 | 39.81816 | 8618 ft | 285 kts | 180° |
| 2026-05-05 05:22 | 47.09478 | 39.81642 | 9306 ft | 288 kts | 180° |
| 2026-05-05 05:22 | 47.07485 | 39.81466 | 9978 ft | 291 kts | 180° |
| 2026-05-05 05:22 | 47.05471 | 39.81290 | 10539 ft | 298 kts | 180° |
| 2026-05-05 05:22 | 47.03342 | 39.81105 | 10843 ft | 314 kts | 180° |
| 2026-05-05 05:23 | 47.01116 | 39.80911 | 11127 ft | 330 kts | 180° |
| 2026-05-05 05:23 | 46.98768 | 39.80706 | 11403 ft | 345 kts | 180° |
| 2026-05-05 05:23 | 46.96326 | 39.80491 | 11667 ft | 359 kts | 180° |
| 2026-05-05 05:23 | 46.93781 | 39.80267 | 11991 ft | 371 kts | 181° |
| 2026-05-05 05:24 | 46.91235 | 39.80040 | 12516 ft | 375 kts | 181° |
| 2026-05-05 05:24 | 46.88616 | 39.79805 | 13095 ft | 377 kts | 181° |
| 2026-05-05 05:24 | 46.86000 | 39.79570 | 13640 ft | 380 kts | 181° |
| 2026-05-05 05:24 | 46.83333 | 39.79333 | 14180 ft | 383 kts | 181° |
| 2026-05-05 05:25 | 46.80678 | 39.79100 | 14702 ft | 386 kts | 181° |
| 2026-05-05 05:25 | 46.77983 | 39.78864 | 15221 ft | 389 kts | 181° |
| 2026-05-05 05:25 | 46.75280 | 39.78626 | 15737 ft | 392 kts | 181° |
| 2026-05-05 05:25 | 46.72539 | 39.78386 | 16243 ft | 394 kts | 181° |
| 2026-05-05 05:26 | 46.69826 | 39.78147 | 16734 ft | 397 kts | 181° |
| 2026-05-05 05:26 | 46.67041 | 39.77901 | 17216 ft | 399 kts | 181° |
| 2026-05-05 05:26 | 46.64285 | 39.77658 | 17667 ft | 402 kts | 181° |
| 2026-05-05 05:26 | 46.61472 | 39.77411 | 18112 ft | 405 kts | 181° |
| 2026-05-05 05:27 | 46.58682 | 39.77165 | 18552 ft | 408 kts | 181° |
| 2026-05-05 05:27 | 46.55812 | 39.76910 | 18983 ft | 411 kts | 181° |
| 2026-05-05 05:27 | 46.50095 | 39.76407 | 19830 ft | 415 kts | 181° |
| 2026-05-05 05:28 | 46.47240 | 39.76156 | 20243 ft | 417 kts | 181° |
| 2026-05-05 05:28 | 46.44314 | 39.75897 | 20672 ft | 419 kts | 181° |
| 2026-05-05 05:28 | 46.41421 | 39.75642 | 21082 ft | 421 kts | 181° |
| 2026-05-05 05:28 | 46.38501 | 39.75389 | 21477 ft | 423 kts | 181° |
| 2026-05-05 05:29 | 46.35526 | 39.75132 | 21870 ft | 425 kts | 180° |
| 2026-05-05 05:29 | 46.32584 | 39.74920 | 22242 ft | 427 kts | 180° |
| 2026-05-05 05:29 | 46.29637 | 39.74725 | 22610 ft | 429 kts | 180° |
| 2026-05-05 05:29 | 46.26619 | 39.74526 | 22988 ft | 431 kts | 180° |
| 2026-05-05 05:30 | 46.23651 | 39.74327 | 23348 ft | 433 kts | 180° |
| 2026-05-05 05:30 | 46.20616 | 39.74121 | 23701 ft | 435 kts | 180° |
| 2026-05-05 05:30 | 46.17602 | 39.73916 | 24055 ft | 437 kts | 180° |
| 2026-05-05 05:30 | 46.14563 | 39.73706 | 24398 ft | 439 kts | 180° |
| 2026-05-05 05:31 | 46.11515 | 39.73495 | 24715 ft | 442 kts | 180° |
| 2026-05-05 05:31 | 46.08454 | 39.73283 | 25029 ft | 444 kts | 179° |
| 2026-05-05 05:31 | 46.05362 | 39.73070 | 25327 ft | 446 kts | 180° |
| 2026-05-05 05:31 | 46.02266 | 39.72857 | 25624 ft | 449 kts | 179° |
| 2026-05-05 05:32 | 45.99150 | 39.72640 | 25914 ft | 451 kts | 180° |
| 2026-05-05 05:32 | 45.96000 | 39.72417 | 26198 ft | 453 kts | 179° |
| 2026-05-05 05:32 | 45.92863 | 39.72199 | 26488 ft | 455 kts | 179° |
| 2026-05-05 05:32 | 45.89700 | 39.71979 | 26772 ft | 457 kts | 179° |
| 2026-05-05 05:33 | 45.86524 | 39.71762 | 27114 ft | 458 kts | 179° |
| 2026-05-05 05:33 | 45.83289 | 39.71544 | 27530 ft | 456 kts | 179° |
| 2026-05-05 05:33 | 45.80136 | 39.71335 | 27944 ft | 455 kts | 179° |
| 2026-05-05 05:33 | 45.76966 | 39.71124 | 28351 ft | 454 kts | 179° |
| 2026-05-05 05:34 | 45.73826 | 39.70913 | 28710 ft | 454 kts | 179° |
| 2026-05-05 05:34 | 45.70651 | 39.70696 | 29077 ft | 453 kts | 179° |
| 2026-05-05 05:34 | 45.67500 | 39.70481 | 29463 ft | 453 kts | 179° |
| 2026-05-05 05:34 | 45.64386 | 39.70268 | 29829 ft | 452 kts | 179° |
| 2026-05-05 05:35 | 45.61237 | 39.70050 | 30180 ft | 452 kts | 179° |
| 2026-05-05 05:35 | 45.58105 | 39.69836 | 30535 ft | 451 kts | 178° |
| 2026-05-05 05:35 | 45.54990 | 39.69626 | 30857 ft | 450 kts | 178° |
| 2026-05-05 05:35 | 45.51869 | 39.69416 | 31178 ft | 450 kts | 178° |
| 2026-05-05 05:36 | 45.48747 | 39.69206 | 31461 ft | 450 kts | 178° |
| 2026-05-05 05:36 | 45.45652 | 39.68998 | 31692 ft | 451 kts | 178° |
| 2026-05-05 05:36 | 45.42517 | 39.68783 | 31906 ft | 452 kts | 178° |
| 2026-05-05 05:36 | 45.39344 | 39.68565 | 32139 ft | 454 kts | 178° |
| 2026-05-05 05:37 | 45.36204 | 39.68346 | 32371 ft | 454 kts | 178° |
| 2026-05-05 05:37 | 45.33075 | 39.68130 | 32584 ft | 455 kts | 178° |
| 2026-05-05 05:37 | 45.29900 | 39.67912 | 32784 ft | 457 kts | 178° |
| 2026-05-05 05:37 | 45.26716 | 39.67698 | 32924 ft | 458 kts | 177° |
| 2026-05-05 05:38 | 45.20425 | 39.67837 | 32946 ft | 454 kts | 171° |
| 2026-05-05 05:38 | 45.14186 | 39.68908 | 32963 ft | 451 kts | 167° |
| 2026-05-05 05:39 | 45.07961 | 39.70154 | 32957 ft | 451 kts | 167° |
| 2026-05-05 05:39 | 45.01758 | 39.71385 | 32949 ft | 451 kts | 167° |
| 2026-05-05 05:40 | 44.95550 | 39.72612 | 32933 ft | 450 kts | 167° |
| 2026-05-05 05:40 | 44.89383 | 39.73830 | 32924 ft | 450 kts | 167° |
| 2026-05-05 05:41 | 44.83163 | 39.75048 | 32924 ft | 450 kts | 167° |
| 2026-05-05 05:41 | 44.76984 | 39.76253 | 32925 ft | 449 kts | 167° |
| 2026-05-05 05:42 | 44.70811 | 39.77462 | 32911 ft | 448 kts | 167° |
| 2026-05-05 05:42 | 44.64663 | 39.78664 | 32905 ft | 448 kts | 167° |
| 2026-05-05 05:43 | 44.58482 | 39.79870 | 32909 ft | 447 kts | 167° |
| 2026-05-05 05:43 | 44.52347 | 39.81062 | 32911 ft | 447 kts | 167° |
| 2026-05-05 05:44 | 44.46212 | 39.82247 | 32910 ft | 447 kts | 167° |
| 2026-05-05 05:44 | 44.40062 | 39.83445 | 32780 ft | 447 kts | 166° |
| 2026-05-05 05:45 | 44.37030 | 39.84208 | 32465 ft | 442 kts | 163° |
| 2026-05-05 05:45 | 44.34053 | 39.85199 | 32005 ft | 436 kts | 159° |
| 2026-05-05 05:45 | 44.31169 | 39.86341 | 31454 ft | 435 kts | 158° |
| 2026-05-05 05:45 | 44.28258 | 39.87501 | 30842 ft | 435 kts | 158° |
| 2026-05-05 05:46 | 44.25360 | 39.88654 | 30081 ft | 435 kts | 159° |
| 2026-05-05 05:46 | 44.22487 | 39.89796 | 29340 ft | 434 kts | 159° |
| 2026-05-05 05:46 | 44.19597 | 39.90942 | 28599 ft | 433 kts | 159° |
| 2026-05-05 05:46 | 44.16686 | 39.92095 | 27853 ft | 433 kts | 159° |
| 2026-05-05 05:47 | 44.13795 | 39.93237 | 27095 ft | 432 kts | 160° |
| 2026-05-05 05:47 | 44.10918 | 39.94373 | 26335 ft | 431 kts | 160° |
| 2026-05-05 05:47 | 44.08071 | 39.95492 | 25835 ft | 424 kts | 160° |
| 2026-05-05 05:47 | 44.05258 | 39.96595 | 25350 ft | 418 kts | 160° |
| 2026-05-05 05:48 | 44.02504 | 39.97676 | 24842 ft | 412 kts | 160° |
| 2026-05-05 05:48 | 43.99740 | 39.98761 | 24329 ft | 407 kts | 161° |
| 2026-05-05 05:48 | 43.97069 | 39.99811 | 23840 ft | 403 kts | 161° |
| 2026-05-05 05:48 | 43.94367 | 40.00878 | 23350 ft | 398 kts | 161° |
| 2026-05-05 05:49 | 43.91732 | 40.01922 | 22875 ft | 395 kts | 161° |
| 2026-05-05 05:49 | 43.89118 | 40.02955 | 22383 ft | 392 kts | 162° |
| 2026-05-05 05:49 | 43.86491 | 40.03983 | 21879 ft | 389 kts | 162° |
| 2026-05-05 05:49 | 43.83918 | 40.04987 | 21398 ft | 386 kts | 162° |
| 2026-05-05 05:50 | 43.81329 | 40.06001 | 20911 ft | 383 kts | 162° |
| 2026-05-05 05:50 | 43.78785 | 40.06997 | 20434 ft | 381 kts | 163° |
| 2026-05-05 05:50 | 43.76231 | 40.07998 | 19937 ft | 379 kts | 163° |
| 2026-05-05 05:50 | 43.73714 | 40.08983 | 19452 ft | 377 kts | 163° |
| 2026-05-05 05:51 | 43.71172 | 40.09888 | 18956 ft | 376 kts | 170° |
| 2026-05-05 05:51 | 43.68586 | 40.10007 | 18483 ft | 375 kts | 185° |
| 2026-05-05 05:51 | 43.66096 | 40.09199 | 18250 ft | 365 kts | 200° |
| 2026-05-05 05:51 | 43.63797 | 40.07834 | 18124 ft | 352 kts | 204° |
| 2026-05-05 05:52 | 43.61621 | 40.06443 | 18021 ft | 339 kts | 204° |
| 2026-05-05 05:52 | 43.59523 | 40.05097 | 17920 ft | 327 kts | 204° |
| 2026-05-05 05:52 | 43.57494 | 40.03810 | 17757 ft | 318 kts | 204° |
| 2026-05-05 05:52 | 43.55490 | 40.02548 | 17375 ft | 317 kts | 204° |
| 2026-05-05 05:53 | 43.53504 | 40.01303 | 17028 ft | 315 kts | 203° |
| 2026-05-05 05:53 | 43.51498 | 40.00047 | 16679 ft | 312 kts | 203° |
| 2026-05-05 05:53 | 43.49561 | 39.98837 | 16358 ft | 308 kts | 203° |
| 2026-05-05 05:53 | 43.47620 | 39.97625 | 16038 ft | 305 kts | 203° |
| 2026-05-05 05:54 | 43.45687 | 39.96456 | 15683 ft | 303 kts | 201° |
| 2026-05-05 05:54 | 43.43705 | 39.95469 | 15313 ft | 302 kts | 197° |
| 2026-05-05 05:54 | 43.41727 | 39.94567 | 14927 ft | 301 kts | 197° |
| 2026-05-05 05:54 | 43.39737 | 39.93663 | 14542 ft | 301 kts | 197° |
| 2026-05-05 05:55 | 43.37747 | 39.92758 | 14157 ft | 300 kts | 197° |
| 2026-05-05 05:55 | 43.35768 | 39.91858 | 13763 ft | 299 kts | 197° |
| 2026-05-05 05:55 | 43.33819 | 39.90969 | 13388 ft | 298 kts | 197° |
| 2026-05-05 05:55 | 43.31842 | 39.90070 | 13001 ft | 298 kts | 197° |
| 2026-05-05 05:56 | 43.29886 | 39.89181 | 12620 ft | 297 kts | 197° |
| 2026-05-05 05:56 | 43.27931 | 39.88293 | 12236 ft | 296 kts | 197° |
| 2026-05-05 05:56 | 43.25975 | 39.87406 | 11850 ft | 295 kts | 197° |
| 2026-05-05 05:56 | 43.24033 | 39.86526 | 11484 ft | 294 kts | 197° |
| 2026-05-05 05:57 | 43.22113 | 39.85655 | 11112 ft | 292 kts | 198° |
| 2026-05-05 05:57 | 43.20187 | 39.84781 | 10736 ft | 290 kts | 198° |
| 2026-05-05 05:57 | 43.18280 | 39.83916 | 10400 ft | 288 kts | 198° |
| 2026-05-05 05:57 | 43.16372 | 39.83051 | 10067 ft | 287 kts | 198° |
| 2026-05-05 05:58 | 43.14481 | 39.82194 | 9729 ft | 286 kts | 198° |
| 2026-05-05 05:58 | 43.12710 | 39.81393 | 9429 ft | 284 kts | 198° |
| 2026-05-05 05:58 | 43.10838 | 39.80547 | 9100 ft | 282 kts | 198° |
| 2026-05-05 05:58 | 43.08983 | 39.79709 | 8797 ft | 278 kts | 198° |
| 2026-05-05 05:59 | 43.07182 | 39.78847 | 8505 ft | 276 kts | 205° |
| 2026-05-05 05:59 | 43.05697 | 39.77265 | 8195 ft | 273 kts | 234° |
| 2026-05-05 05:59 | 43.04921 | 39.74944 | 7837 ft | 271 kts | 261° |
| 2026-05-05 05:59 | 43.04992 | 39.72382 | 7431 ft | 269 kts | 288° |
| 2026-05-05 06:00 | 43.05853 | 39.70186 | 7064 ft | 265 kts | 313° |
| 2026-05-05 06:00 | 43.07319 | 39.68708 | 6729 ft | 261 kts | 338° |
| 2026-05-05 06:00 | 43.09072 | 39.68231 | 6403 ft | 258 kts | 2° |
| 2026-05-05 06:00 | 43.10794 | 39.68798 | 6087 ft | 256 kts | 27° |
| 2026-05-05 06:01 | 43.12189 | 39.70306 | 5758 ft | 255 kts | 51° |
| 2026-05-05 06:01 | 43.12978 | 39.72419 | 5461 ft | 254 kts | 75° |
| 2026-05-05 06:01 | 43.13234 | 39.74646 | 5178 ft | 253 kts | 81° |
| 2026-05-05 06:01 | 43.13695 | 39.76958 | 4849 ft | 251 kts | 63° |
| 2026-05-05 06:02 | 43.14745 | 39.78802 | 4544 ft | 248 kts | 38° |
| 2026-05-05 06:02 | 43.16273 | 39.79842 | 4233 ft | 247 kts | 14° |
| 2026-05-05 06:02 | 43.17943 | 39.80273 | 3966 ft | 245 kts | 10° |
| 2026-05-05 06:02 | 43.19624 | 39.80636 | 3692 ft | 243 kts | 9° |
| 2026-05-05 06:03 | 43.21258 | 39.80976 | 3636 ft | 231 kts | 9° |
| 2026-05-05 06:03 | 43.22810 | 39.81297 | 3604 ft | 221 kts | 9° |
| 2026-05-05 06:03 | 43.24272 | 39.81601 | 3650 ft | 203 kts | 9° |
| 2026-05-05 06:03 | 43.25626 | 39.81888 | 3512 ft | 189 kts | 11° |
| 2026-05-05 06:04 | 43.26814 | 39.82307 | 3339 ft | 167 kts | 19° |
| 2026-05-05 06:04 | 43.27846 | 39.82877 | 3238 ft | 156 kts | 25° |
| 2026-05-05 06:04 | 43.28735 | 39.83451 | 3088 ft | 155 kts | 27° |
| 2026-05-05 06:04 | 43.29705 | 39.84127 | 2887 ft | 155 kts | 28° |
| 2026-05-05 06:05 | 43.30648 | 39.84817 | 2696 ft | 155 kts | 29° |
| 2026-05-05 06:05 | 43.31599 | 39.85532 | 2521 ft | 155 kts | 30° |
| 2026-05-05 06:05 | 43.32537 | 39.86241 | 2333 ft | 155 kts | 30° |
| 2026-05-05 06:05 | 43.33478 | 39.86955 | 2137 ft | 154 kts | 29° |
| 2026-05-05 06:06 | 43.34415 | 39.87665 | 1945 ft | 154 kts | 29° |
| 2026-05-05 06:06 | 43.35356 | 39.88378 | 1748 ft | 154 kts | 28° |
| 2026-05-05 06:06 | 43.36290 | 39.89083 | 1557 ft | 152 kts | 29° |
| 2026-05-05 06:06 | 43.37221 | 39.89783 | 1363 ft | 151 kts | 29° |
| 2026-05-05 06:07 | 43.38140 | 39.90475 | 1173 ft | 150 kts | 29° |
| 2026-05-05 06:07 | 43.39051 | 39.91161 | 984 ft | 150 kts | 28° |
| 2026-05-05 06:07 | 43.39970 | 39.91853 | 794 ft | 150 kts | 28° |
| 2026-05-05 06:07 | 43.40881 | 39.92540 | 606 ft | 150 kts | 28° |
| 2026-05-05 06:08 | 43.41794 | 39.93228 | 419 ft | 150 kts | 28° |
| 2026-05-05 06:08 | 43.42703 | 39.93912 | 232 ft | 150 kts | 28° |
| 2026-05-05 06:08 | 43.43613 | 39.94598 | 53 ft | 148 kts | 28° |
| 2026-05-05 06:08 | 43.44337 | 39.95141 | 62 ft | 75 kts | 28° |
| 2026-05-05 06:09 | 43.44533 | 39.95289 | 64 ft | 0 kts | 28° |
| 2026-05-05 06:09 | 43.44548 | 39.95298 | 64 ft | 3 kts | 12° |
| 2026-05-05 06:09 | 43.44586 | 39.95296 | 65 ft | 8 kts | 357° |
| 2026-05-05 06:10 | 43.44661 | 39.95290 | 65 ft | 11 kts | 357° |
| 2026-05-05 06:10 | 43.44755 | 39.95271 | 66 ft | 14 kts | 342° |
| 2026-05-05 06:10 | 43.44810 | 39.95172 | 63 ft | 16 kts | 276° |
| 2026-05-05 06:10 | 43.44833 | 39.95011 | 55 ft | 18 kts | 322° |
| 2026-05-05 06:11 | 43.44941 | 39.94929 | 54 ft | 15 kts | 334° |
| 2026-05-05 06:11 | 43.44983 | 39.94902 | 55 ft | 0 kts | 334° |